sensor_id;sensor_type;location;lat;lon;timestamp;P1;P2;P0
47810;PMS5003;33575;52.600;7.318;2023-04-03T00:01:29;5;5;
47810;PMS5003;33575;52.600;7.318;2023-04-03T00:04:00;5;5;
47810;PMS5003;33575;52.600;7.318;2023-04-03T00:06:31;7;7;
47810;PMS5003;33575;52.600;7.318;2023-04-03T00:09:02;5;5;
47810;PMS5003;33575;52.600;7.318;2023-04-03T00:11:33;5;4;
47810;PMS5003;33575;52.600;7.318;2023-04-03T00:14:04;6;4;
47810;PMS5003;33575;52.600;7.318;2023-04-03T00:16:35;4;4;
47810;PMS5003;33575;52.600;7.318;2023-04-03T00:19:05;7;6;
47810;PMS5003;33575;52.600;7.318;2023-04-03T00:21:36;8;6;
47810;PMS5003;33575;52.600;7.318;2023-04-03T00:24:07;5;5;
47810;PMS5003;33575;52.600;7.318;2023-04-03T00:26:39;5;5;
47810;PMS5003;33575;52.600;7.318;2023-04-03T00:29:09;5;5;
47810;PMS5003;33575;52.600;7.318;2023-04-03T00:31:40;5;5;
47810;PMS5003;33575;52.600;7.318;2023-04-03T00:34:11;6;5;
47810;PMS5003;33575;52.600;7.318;2023-04-03T00:36:42;4;4;
47810;PMS5003;33575;52.600;7.318;2023-04-03T00:39:12;6;6;
47810;PMS5003;33575;52.600;7.318;2023-04-03T00:41:43;5;5;
47810;PMS5003;33575;52.600;7.318;2023-04-03T00:46:45;7;7;
47810;PMS5003;33575;52.600;7.318;2023-04-03T00:49:16;6;5;
47810;PMS5003;33575;52.600;7.318;2023-04-03T00:51:47;6;6;
47810;PMS5003;33575;52.600;7.318;2023-04-03T00:54:18;6;5;
47810;PMS5003;33575;52.600;7.318;2023-04-03T00:56:49;6;6;
47810;PMS5003;33575;52.600;7.318;2023-04-03T00:59:20;4;4;
47810;PMS5003;33575;52.600;7.318;2023-04-03T01:01:50;5;4;
47810;PMS5003;33575;52.600;7.318;2023-04-03T01:04:26;7;7;
47810;PMS5003;33575;52.600;7.318;2023-04-03T01:06:52;4;4;
47810;PMS5003;33575;52.600;7.318;2023-04-03T01:09:23;7;6;
47810;PMS5003;33575;52.600;7.318;2023-04-03T01:11:54;7;5;
47810;PMS5003;33575;52.600;7.318;2023-04-03T01:14:25;6;6;
47810;PMS5003;33575;52.600;7.318;2023-04-03T01:16:56;5;5;
47810;PMS5003;33575;52.600;7.318;2023-04-03T01:19:26;4;4;
47810;PMS5003;33575;52.600;7.318;2023-04-03T01:24:31;6;6;
47810;PMS5003;33575;52.600;7.318;2023-04-03T01:27:00;5;5;
47810;PMS5003;33575;52.600;7.318;2023-04-03T01:29:30;6;6;
47810;PMS5003;33575;52.600;7.318;2023-04-03T01:32:01;7;6;
47810;PMS5003;33575;52.600;7.318;2023-04-03T01:34:32;6;5;
47810;PMS5003;33575;52.600;7.318;2023-04-03T01:37:03;5;5;
47810;PMS5003;33575;52.600;7.318;2023-04-03T01:39:33;6;6;
47810;PMS5003;33575;52.600;7.318;2023-04-03T01:42:04;7;7;
47810;PMS5003;33575;52.600;7.318;2023-04-03T01:44:35;6;5;
47810;PMS5003;33575;52.600;7.318;2023-04-03T01:47:06;6;5;
47810;PMS5003;33575;52.600;7.318;2023-04-03T01:49:37;5;5;
47810;PMS5003;33575;52.600;7.318;2023-04-03T01:52:08;7;6;
47810;PMS5003;33575;52.600;7.318;2023-04-03T01:54:39;6;5;
47810;PMS5003;33575;52.600;7.318;2023-04-03T01:57:10;6;5;
47810;PMS5003;33575;52.600;7.318;2023-04-03T01:59:41;4;4;
47810;PMS5003;33575;52.600;7.318;2023-04-03T02:02:12;5;5;
47810;PMS5003;33575;52.600;7.318;2023-04-03T02:04:42;5;5;
47810;PMS5003;33575;52.600;7.318;2023-04-03T02:07:13;5;5;
47810;PMS5003;33575;52.600;7.318;2023-04-03T02:09:44;5;5;
47810;PMS5003;33575;52.600;7.318;2023-04-03T02:12:15;4;4;
47810;PMS5003;33575;52.600;7.318;2023-04-03T02:14:46;4;4;
47810;PMS5003;33575;52.600;7.318;2023-04-03T02:17:17;5;5;
47810;PMS5003;33575;52.600;7.318;2023-04-03T02:19:48;5;5;
47810;PMS5003;33575;52.600;7.318;2023-04-03T02:22:19;6;5;
47810;PMS5003;33575;52.600;7.318;2023-04-03T02:24:50;4;4;
47810;PMS5003;33575;52.600;7.318;2023-04-03T02:27:21;6;5;
47810;PMS5003;33575;52.600;7.318;2023-04-03T02:29:51;4;4;
47810;PMS5003;33575;52.600;7.318;2023-04-03T02:32:22;4;4;
47810;PMS5003;33575;52.600;7.318;2023-04-03T02:34:53;7;6;
47810;PMS5003;33575;52.600;7.318;2023-04-03T02:37:24;7;6;
47810;PMS5003;33575;52.600;7.318;2023-04-03T02:39:55;4;4;
47810;PMS5003;33575;52.600;7.318;2023-04-03T02:42:26;5;5;
47810;PMS5003;33575;52.600;7.318;2023-04-03T02:45:00;5;4;
47810;PMS5003;33575;52.600;7.318;2023-04-03T02:47:27;4;4;
47810;PMS5003;33575;52.600;7.318;2023-04-03T02:49:57;4;4;
47810;PMS5003;33575;52.600;7.318;2023-04-03T02:52:27;5;5;
47810;PMS5003;33575;52.600;7.318;2023-04-03T02:54:57;5;4;
47810;PMS5003;33575;52.600;7.318;2023-04-03T02:57:27;5;5;
47810;PMS5003;33575;52.600;7.318;2023-04-03T02:59:57;4;4;
47810;PMS5003;33575;52.600;7.318;2023-04-03T03:02:27;4;4;
47810;PMS5003;33575;52.600;7.318;2023-04-03T03:04:57;4;4;
47810;PMS5003;33575;52.600;7.318;2023-04-03T03:07:27;5;4;
47810;PMS5003;33575;52.600;7.318;2023-04-03T03:09:57;6;5;
47810;PMS5003;33575;52.600;7.318;2023-04-03T03:12:28;6;4;
47810;PMS5003;33575;52.600;7.318;2023-04-03T03:14:58;6;5;
47810;PMS5003;33575;52.600;7.318;2023-04-03T03:17:28;5;4;
47810;PMS5003;33575;52.600;7.318;2023-04-03T03:19:58;5;4;
47810;PMS5003;33575;52.600;7.318;2023-04-03T03:22:28;6;5;
47810;PMS5003;33575;52.600;7.318;2023-04-03T03:24:58;13;9;
47810;PMS5003;33575;52.600;7.318;2023-04-03T03:27:28;8;7;
47810;PMS5003;33575;52.600;7.318;2023-04-03T03:29:58;5;5;
47810;PMS5003;33575;52.600;7.318;2023-04-03T03:32:29;6;5;
47810;PMS5003;33575;52.600;7.318;2023-04-03T03:34:59;6;6;
47810;PMS5003;33575;52.600;7.318;2023-04-03T03:37:29;5;4;
47810;PMS5003;33575;52.600;7.318;2023-04-03T03:39:59;5;5;
47810;PMS5003;33575;52.600;7.318;2023-04-03T03:42:29;4;4;
47810;PMS5003;33575;52.600;7.318;2023-04-03T03:44:59;6;5;
47810;PMS5003;33575;52.600;7.318;2023-04-03T03:47:30;5;4;
47810;PMS5003;33575;52.600;7.318;2023-04-03T03:50:00;6;6;
47810;PMS5003;33575;52.600;7.318;2023-04-03T03:52:30;5;4;
47810;PMS5003;33575;52.600;7.318;2023-04-03T03:55:00;5;5;
47810;PMS5003;33575;52.600;7.318;2023-04-03T03:57:30;5;4;
47810;PMS5003;33575;52.600;7.318;2023-04-03T04:00:00;6;5;
47810;PMS5003;33575;52.600;7.318;2023-04-03T04:02:30;6;6;
47810;PMS5003;33575;52.600;7.318;2023-04-03T04:05:00;7;5;
47810;PMS5003;33575;52.600;7.318;2023-04-03T04:07:30;5;5;
47810;PMS5003;33575;52.600;7.318;2023-04-03T04:10:00;4;4;
47810;PMS5003;33575;52.600;7.318;2023-04-03T04:12:30;5;4;
47810;PMS5003;33575;52.600;7.318;2023-04-03T04:15:00;6;5;
47810;PMS5003;33575;52.600;7.318;2023-04-03T04:17:31;6;6;
47810;PMS5003;33575;52.600;7.318;2023-04-03T04:20:01;4;4;
47810;PMS5003;33575;52.600;7.318;2023-04-03T04:22:31;6;4;
47810;PMS5003;33575;52.600;7.318;2023-04-03T04:25:01;5;5;
47810;PMS5003;33575;52.600;7.318;2023-04-03T04:27:31;6;5;
47810;PMS5003;33575;52.600;7.318;2023-04-03T04:30:01;6;5;
47810;PMS5003;33575;52.600;7.318;2023-04-03T04:32:31;7;6;
47810;PMS5003;33575;52.600;7.318;2023-04-03T04:35:01;4;4;
47810;PMS5003;33575;52.600;7.318;2023-04-03T04:37:31;7;5;
47810;PMS5003;33575;52.600;7.318;2023-04-03T04:40:01;6;4;
47810;PMS5003;33575;52.600;7.318;2023-04-03T04:42:31;6;5;
47810;PMS5003;33575;52.600;7.318;2023-04-03T04:45:02;6;6;
47810;PMS5003;33575;52.600;7.318;2023-04-03T04:47:32;5;5;
47810;PMS5003;33575;52.600;7.318;2023-04-03T04:50:02;4;4;
47810;PMS5003;33575;52.600;7.318;2023-04-03T04:52:32;5;5;
47810;PMS5003;33575;52.600;7.318;2023-04-03T04:55:02;6;5;
47810;PMS5003;33575;52.600;7.318;2023-04-03T04:57:32;8;7;
47810;PMS5003;33575;52.600;7.318;2023-04-03T05:00:02;7;7;
47810;PMS5003;33575;52.600;7.318;2023-04-03T05:02:32;5;5;
47810;PMS5003;33575;52.600;7.318;2023-04-03T05:05:05;7;6;
47810;PMS5003;33575;52.600;7.318;2023-04-03T05:07:32;7;5;
47810;PMS5003;33575;52.600;7.318;2023-04-03T05:10:03;5;5;
47810;PMS5003;33575;52.600;7.318;2023-04-03T05:12:33;7;6;
47810;PMS5003;33575;52.600;7.318;2023-04-03T05:15:03;8;7;
47810;PMS5003;33575;52.600;7.318;2023-04-03T05:17:33;5;4;
47810;PMS5003;33575;52.600;7.318;2023-04-03T05:20:04;5;5;
47810;PMS5003;33575;52.600;7.318;2023-04-03T05:22:34;6;5;
47810;PMS5003;33575;52.600;7.318;2023-04-03T05:25:04;6;6;
47810;PMS5003;33575;52.600;7.318;2023-04-03T05:27:34;4;4;
47810;PMS5003;33575;52.600;7.318;2023-04-03T05:30:04;5;5;
47810;PMS5003;33575;52.600;7.318;2023-04-03T05:32:34;5;5;
47810;PMS5003;33575;52.600;7.318;2023-04-03T05:35:05;4;4;
47810;PMS5003;33575;52.600;7.318;2023-04-03T05:37:35;7;7;
47810;PMS5003;33575;52.600;7.318;2023-04-03T05:40:05;7;6;
47810;PMS5003;33575;52.600;7.318;2023-04-03T05:42:35;4;4;
47810;PMS5003;33575;52.600;7.318;2023-04-03T05:45:05;5;5;
47810;PMS5003;33575;52.600;7.318;2023-04-03T05:47:35;5;4;
47810;PMS5003;33575;52.600;7.318;2023-04-03T05:50:06;6;5;
47810;PMS5003;33575;52.600;7.318;2023-04-03T05:52:36;4;4;
47810;PMS5003;33575;52.600;7.318;2023-04-03T05:55:06;5;5;
47810;PMS5003;33575;52.600;7.318;2023-04-03T05:57:35;5;5;
47810;PMS5003;33575;52.600;7.318;2023-04-03T06:00:07;7;6;
47810;PMS5003;33575;52.600;7.318;2023-04-03T06:02:36;5;4;
47810;PMS5003;33575;52.600;7.318;2023-04-03T06:05:06;4;4;
47810;PMS5003;33575;52.600;7.318;2023-04-03T06:07:36;4;4;
47810;PMS5003;33575;52.600;7.318;2023-04-03T06:10:06;4;4;
47810;PMS5003;33575;52.600;7.318;2023-04-03T06:12:36;4;4;
47810;PMS5003;33575;52.600;7.318;2023-04-03T06:15:07;7;6;
47810;PMS5003;33575;52.600;7.318;2023-04-03T06:17:36;4;4;
47810;PMS5003;33575;52.600;7.318;2023-04-03T06:20:06;6;5;
47810;PMS5003;33575;52.600;7.318;2023-04-03T06:22:36;6;5;
47810;PMS5003;33575;52.600;7.318;2023-04-03T06:25:07;5;5;
47810;PMS5003;33575;52.600;7.318;2023-04-03T06:27:36;5;5;
47810;PMS5003;33575;52.600;7.318;2023-04-03T06:30:07;8;7;
47810;PMS5003;33575;52.600;7.318;2023-04-03T06:32:37;6;6;
47810;PMS5003;33575;52.600;7.318;2023-04-03T06:35:07;4;4;
47810;PMS5003;33575;52.600;7.318;2023-04-03T06:37:37;6;5;
47810;PMS5003;33575;52.600;7.318;2023-04-03T06:40:09;4;3;
47810;PMS5003;33575;52.600;7.318;2023-04-03T06:42:37;9;6;
47810;PMS5003;33575;52.600;7.318;2023-04-03T06:45:07;9;6;
47810;PMS5003;33575;52.600;7.318;2023-04-03T06:47:37;6;5;
47810;PMS5003;33575;52.600;7.318;2023-04-03T06:50:08;10;6;
47810;PMS5003;33575;52.600;7.318;2023-04-03T06:52:37;8;6;
47810;PMS5003;33575;52.600;7.318;2023-04-03T06:55:08;7;7;
47810;PMS5003;33575;52.600;7.318;2023-04-03T06:57:38;4;4;
47810;PMS5003;33575;52.600;7.318;2023-04-03T07:00:08;6;6;
47810;PMS5003;33575;52.600;7.318;2023-04-03T07:02:39;8;7;
47810;PMS5003;33575;52.600;7.318;2023-04-03T07:05:10;6;4;
47810;PMS5003;33575;52.600;7.318;2023-04-03T07:07:40;8;6;
47810;PMS5003;33575;52.600;7.318;2023-04-03T07:10:11;3;3;
47810;PMS5003;33575;52.600;7.318;2023-04-03T07:12:42;5;4;
47810;PMS5003;33575;52.600;7.318;2023-04-03T07:15:13;5;5;
47810;PMS5003;33575;52.600;7.318;2023-04-03T07:17:44;5;5;
47810;PMS5003;33575;52.600;7.318;2023-04-03T07:20:15;5;4;
47810;PMS5003;33575;52.600;7.318;2023-04-03T07:22:46;2;2;
47810;PMS5003;33575;52.600;7.318;2023-04-03T07:25:17;6;4;
47810;PMS5003;33575;52.600;7.318;2023-04-03T07:27:47;4;3;
47810;PMS5003;33575;52.600;7.318;2023-04-03T07:30:18;4;4;
47810;PMS5003;33575;52.600;7.318;2023-04-03T07:32:49;5;3;
47810;PMS5003;33575;52.600;7.318;2023-04-03T07:35:20;4;4;
47810;PMS5003;33575;52.600;7.318;2023-04-03T07:37:51;6;5;
47810;PMS5003;33575;52.600;7.318;2023-04-03T07:40:21;5;3;
47810;PMS5003;33575;52.600;7.318;2023-04-03T07:42:51;3;3;
47810;PMS5003;33575;52.600;7.318;2023-04-03T07:45:22;4;3;
47810;PMS5003;33575;52.600;7.318;2023-04-03T07:47:53;3;2;
47810;PMS5003;33575;52.600;7.318;2023-04-03T07:50:24;5;4;
47810;PMS5003;33575;52.600;7.318;2023-04-03T07:52:55;4;4;
47810;PMS5003;33575;52.600;7.318;2023-04-03T07:55:25;5;4;
47810;PMS5003;33575;52.600;7.318;2023-04-03T07:57:56;2;2;
47810;PMS5003;33575;52.600;7.318;2023-04-03T08:00:27;3;3;
47810;PMS5003;33575;52.600;7.318;2023-04-03T08:02:58;2;1;
47810;PMS5003;33575;52.600;7.318;2023-04-03T08:05:29;2;2;
47810;PMS5003;33575;52.600;7.318;2023-04-03T08:08:00;2;2;
47810;PMS5003;33575;52.600;7.318;2023-04-03T08:10:31;3;3;
47810;PMS5003;33575;52.600;7.318;2023-04-03T08:13:01;2;2;
47810;PMS5003;33575;52.600;7.318;2023-04-03T08:15:32;4;4;
47810;PMS5003;33575;52.600;7.318;2023-04-03T08:18:03;3;3;
47810;PMS5003;33575;52.600;7.318;2023-04-03T08:20:34;3;3;
47810;PMS5003;33575;52.600;7.318;2023-04-03T08:23:05;2;2;
47810;PMS5003;33575;52.600;7.318;2023-04-03T08:25:37;3;3;
47810;PMS5003;33575;52.600;7.318;2023-04-03T08:28:06;3;3;
47810;PMS5003;33575;52.600;7.318;2023-04-03T08:30:38;3;3;
47810;PMS5003;33575;52.600;7.318;2023-04-03T08:33:08;1;1;
47810;PMS5003;33575;52.600;7.318;2023-04-03T08:35:39;2;2;
47810;PMS5003;33575;52.600;7.318;2023-04-03T08:38:10;2;2;
47810;PMS5003;33575;52.600;7.318;2023-04-03T08:40:40;2;2;
47810;PMS5003;33575;52.600;7.318;2023-04-03T08:43:19;3;2;
47810;PMS5003;33575;52.600;7.318;2023-04-03T08:45:42;2;2;
47810;PMS5003;33575;52.600;7.318;2023-04-03T08:48:13;2;1;
47810;PMS5003;33575;52.600;7.318;2023-04-03T08:50:44;2;1;
47810;PMS5003;33575;52.600;7.318;2023-04-03T08:53:15;2;1;
47810;PMS5003;33575;52.600;7.318;2023-04-03T08:55:46;4;2;
47810;PMS5003;33575;52.600;7.318;2023-04-03T08:58:17;3;2;
47810;PMS5003;33575;52.600;7.318;2023-04-03T09:00:47;3;2;
47810;PMS5003;33575;52.600;7.318;2023-04-03T09:03:18;2;2;
47810;PMS5003;33575;52.600;7.318;2023-04-03T09:05:49;1;1;
47810;PMS5003;33575;52.600;7.318;2023-04-03T09:08:21;2;2;
47810;PMS5003;33575;52.600;7.318;2023-04-03T09:10:49;2;2;
47810;PMS5003;33575;52.600;7.318;2023-04-03T09:13:23;0;0;
47810;PMS5003;33575;52.600;7.318;2023-04-03T09:15:51;3;1;
47810;PMS5003;33575;52.600;7.318;2023-04-03T09:18:23;1;1;
47810;PMS5003;33575;52.600;7.318;2023-04-03T09:20:54;2;2;
47810;PMS5003;33575;52.600;7.318;2023-04-03T09:23:24;3;1;
47810;PMS5003;33575;52.600;7.318;2023-04-03T09:25:56;0;0;
47810;PMS5003;33575;52.600;7.318;2023-04-03T09:28:24;3;3;
47810;PMS5003;33575;52.600;7.318;2023-04-03T09:30:55;1;1;
47810;PMS5003;33575;52.600;7.318;2023-04-03T09:33:26;1;1;
47810;PMS5003;33575;52.600;7.318;2023-04-03T09:35:57;0;0;
47810;PMS5003;33575;52.600;7.318;2023-04-03T09:38:27;1;0;
47810;PMS5003;33575;52.600;7.318;2023-04-03T09:41:03;1;1;
47810;PMS5003;33575;52.600;7.318;2023-04-03T09:43:29;3;2;
47810;PMS5003;33575;52.600;7.318;2023-04-03T09:48:30;2;1;
47810;PMS5003;33575;52.600;7.318;2023-04-03T09:51:01;2;1;
47810;PMS5003;33575;52.600;7.318;2023-04-03T09:53:33;1;1;
47810;PMS5003;33575;52.600;7.318;2023-04-03T09:56:03;2;1;
47810;PMS5003;33575;52.600;7.318;2023-04-03T09:58:40;2;2;
47810;PMS5003;33575;52.600;7.318;2023-04-03T10:01:03;2;1;
47810;PMS5003;33575;52.600;7.318;2023-04-03T10:03:35;1;0;
47810;PMS5003;33575;52.600;7.318;2023-04-03T10:06:05;2;1;
47810;PMS5003;33575;52.600;7.318;2023-04-03T10:08:35;0;0;
47810;PMS5003;33575;52.600;7.318;2023-04-03T10:11:10;1;1;
47810;PMS5003;33575;52.600;7.318;2023-04-03T10:16:13;0;0;
47810;PMS5003;33575;52.600;7.318;2023-04-03T10:18:39;3;2;
47810;PMS5003;33575;52.600;7.318;2023-04-03T10:21:15;2;2;
47810;PMS5003;33575;52.600;7.318;2023-04-03T10:23:39;2;2;
47810;PMS5003;33575;52.600;7.318;2023-04-03T10:26:11;1;1;
47810;PMS5003;33575;52.600;7.318;2023-04-03T10:28:42;2;1;
47810;PMS5003;33575;52.600;7.318;2023-04-03T10:31:13;0;0;
47810;PMS5003;33575;52.600;7.318;2023-04-03T10:33:45;2;1;
47810;PMS5003;33575;52.600;7.318;2023-04-03T10:36:15;2;1;
47810;PMS5003;33575;52.600;7.318;2023-04-03T10:38:44;2;2;
47810;PMS5003;33575;52.600;7.318;2023-04-03T10:41:15;2;2;
47810;PMS5003;33575;52.600;7.318;2023-04-03T10:43:44;1;1;
47810;PMS5003;33575;52.600;7.318;2023-04-03T10:46:15;0;0;
47810;PMS5003;33575;52.600;7.318;2023-04-03T10:48:49;2;1;
47810;PMS5003;33575;52.600;7.318;2023-04-03T10:51:18;2;1;
47810;PMS5003;33575;52.600;7.318;2023-04-03T10:53:49;1;1;
47810;PMS5003;33575;52.600;7.318;2023-04-03T10:56:18;2;2;
47810;PMS5003;33575;52.600;7.318;2023-04-03T10:58:48;1;1;
47810;PMS5003;33575;52.600;7.318;2023-04-03T11:01:19;1;0;
47810;PMS5003;33575;52.600;7.318;2023-04-03T11:03:49;1;1;
47810;PMS5003;33575;52.600;7.318;2023-04-03T11:06:19;2;1;
47810;PMS5003;33575;52.600;7.318;2023-04-03T11:08:49;0;0;
47810;PMS5003;33575;52.600;7.318;2023-04-03T11:11:21;2;2;
47810;PMS5003;33575;52.600;7.318;2023-04-03T11:13:51;1;1;
47810;PMS5003;33575;52.600;7.318;2023-04-03T11:16:23;2;2;
47810;PMS5003;33575;52.600;7.318;2023-04-03T11:18:52;1;1;
47810;PMS5003;33575;52.600;7.318;2023-04-03T11:21:23;0;0;
47810;PMS5003;33575;52.600;7.318;2023-04-03T11:23:52;1;1;
47810;PMS5003;33575;52.600;7.318;2023-04-03T11:26:24;1;1;
47810;PMS5003;33575;52.600;7.318;2023-04-03T11:28:56;1;1;
47810;PMS5003;33575;52.600;7.318;2023-04-03T11:31:28;1;1;
47810;PMS5003;33575;52.600;7.318;2023-04-03T11:33:57;1;1;
47810;PMS5003;33575;52.600;7.318;2023-04-03T11:36:30;2;1;
47810;PMS5003;33575;52.600;7.318;2023-04-03T11:38:56;1;1;
47810;PMS5003;33575;52.600;7.318;2023-04-03T11:41:27;0;0;
47810;PMS5003;33575;52.600;7.318;2023-04-03T11:43:58;2;1;
47810;PMS5003;33575;52.600;7.318;2023-04-03T11:48:58;1;1;
47810;PMS5003;33575;52.600;7.318;2023-04-03T11:56:30;0;0;
47810;PMS5003;33575;52.600;7.318;2023-04-03T12:04:06;2;1;
47810;PMS5003;33575;52.600;7.318;2023-04-03T12:09:04;2;1;
47810;PMS5003;33575;52.600;7.318;2023-04-03T12:11:33;1;1;
47810;PMS5003;33575;52.600;7.318;2023-04-03T12:14:04;2;1;
47810;PMS5003;33575;52.600;7.318;2023-04-03T12:19:24;1;1;
47810;PMS5003;33575;52.600;7.318;2023-04-03T12:26:43;2;1;
47810;PMS5003;33575;52.600;7.318;2023-04-03T12:29:12;2;2;
47810;PMS5003;33575;52.600;7.318;2023-04-03T12:31:40;2;2;
47810;PMS5003;33575;52.600;7.318;2023-04-03T12:34:12;0;0;
47810;PMS5003;33575;52.600;7.318;2023-04-03T12:36:41;1;1;
47810;PMS5003;33575;52.600;7.318;2023-04-03T12:41:42;3;3;
47810;PMS5003;33575;52.600;7.318;2023-04-03T12:46:42;2;2;
47810;PMS5003;33575;52.600;7.318;2023-04-03T12:49:14;2;2;
47810;PMS5003;33575;52.600;7.318;2023-04-03T12:51:42;1;1;
47810;PMS5003;33575;52.600;7.318;2023-04-03T12:54:13;2;1;
47810;PMS5003;33575;52.600;7.318;2023-04-03T12:56:43;0;0;
47810;PMS5003;33575;52.600;7.318;2023-04-03T12:59:15;1;1;
47810;PMS5003;33575;52.600;7.318;2023-04-03T13:01:45;1;1;
47810;PMS5003;33575;52.600;7.318;2023-04-03T13:04:15;1;1;
47810;PMS5003;33575;52.600;7.318;2023-04-03T13:06:45;3;1;
47810;PMS5003;33575;52.600;7.318;2023-04-03T13:09:18;1;1;
47810;PMS5003;33575;52.600;7.318;2023-04-03T13:11:46;1;1;
47810;PMS5003;33575;52.600;7.318;2023-04-03T13:14:18;2;1;
47810;PMS5003;33575;52.600;7.318;2023-04-03T13:19:18;2;1;
47810;PMS5003;33575;52.600;7.318;2023-04-03T13:21:49;3;2;
47810;PMS5003;33575;52.600;7.318;2023-04-03T13:24:19;3;2;
47810;PMS5003;33575;52.600;7.318;2023-04-03T13:26:50;1;1;
47810;PMS5003;33575;52.600;7.318;2023-04-03T13:29:26;3;2;
47810;PMS5003;33575;52.600;7.318;2023-04-03T13:31:52;2;2;
47810;PMS5003;33575;52.600;7.318;2023-04-03T13:34:22;2;2;
47810;PMS5003;33575;52.600;7.318;2023-04-03T13:36:56;2;2;
47810;PMS5003;33575;52.600;7.318;2023-04-03T13:39:24;1;1;
47810;PMS5003;33575;52.600;7.318;2023-04-03T13:41:54;1;1;
47810;PMS5003;33575;52.600;7.318;2023-04-03T13:44:26;2;0;
47810;PMS5003;33575;52.600;7.318;2023-04-03T13:46:55;2;2;
47810;PMS5003;33575;52.600;7.318;2023-04-03T13:49:29;1;1;
47810;PMS5003;33575;52.600;7.318;2023-04-03T13:52:00;2;2;
47810;PMS5003;33575;52.600;7.318;2023-04-03T13:54:29;2;2;
47810;PMS5003;33575;52.600;7.318;2023-04-03T13:56:57;2;2;
47810;PMS5003;33575;52.600;7.318;2023-04-03T13:59:27;3;2;
47810;PMS5003;33575;52.600;7.318;2023-04-03T14:04:28;2;2;
47810;PMS5003;33575;52.600;7.318;2023-04-03T14:06:58;3;3;
47810;PMS5003;33575;52.600;7.318;2023-04-03T14:09:29;2;2;
47810;PMS5003;33575;52.600;7.318;2023-04-03T14:12:00;1;1;
47810;PMS5003;33575;52.600;7.318;2023-04-03T14:14:30;2;2;
47810;PMS5003;33575;52.600;7.318;2023-04-03T14:17:01;1;1;
47810;PMS5003;33575;52.600;7.318;2023-04-03T14:19:31;3;3;
47810;PMS5003;33575;52.600;7.318;2023-04-03T14:22:06;0;0;
47810;PMS5003;33575;52.600;7.318;2023-04-03T14:24:31;1;1;
47810;PMS5003;33575;52.600;7.318;2023-04-03T14:27:02;2;2;
47810;PMS5003;33575;52.600;7.318;2023-04-03T14:29:32;2;1;
47810;PMS5003;33575;52.600;7.318;2023-04-03T14:32:10;2;2;
47810;PMS5003;33575;52.600;7.318;2023-04-03T14:34:33;3;3;
47810;PMS5003;33575;52.600;7.318;2023-04-03T14:37:04;1;1;
47810;PMS5003;33575;52.600;7.318;2023-04-03T14:39:35;1;1;
47810;PMS5003;33575;52.600;7.318;2023-04-03T14:42:05;2;2;
47810;PMS5003;33575;52.600;7.318;2023-04-03T14:44:36;1;1;
47810;PMS5003;33575;52.600;7.318;2023-04-03T14:47:11;3;2;
47810;PMS5003;33575;52.600;7.318;2023-04-03T14:49:37;1;1;
47810;PMS5003;33575;52.600;7.318;2023-04-03T14:52:09;3;3;
47810;PMS5003;33575;52.600;7.318;2023-04-03T14:54:38;2;2;
47810;PMS5003;33575;52.600;7.318;2023-04-03T14:57:08;2;2;
47810;PMS5003;33575;52.600;7.318;2023-04-03T14:59:39;2;1;
47810;PMS5003;33575;52.600;7.318;2023-04-03T15:02:13;2;2;
47810;PMS5003;33575;52.600;7.318;2023-04-03T15:04:40;2;2;
47810;PMS5003;33575;52.600;7.318;2023-04-03T15:07:10;3;3;
47810;PMS5003;33575;52.600;7.318;2023-04-03T15:09:41;2;1;
47810;PMS5003;33575;52.600;7.318;2023-04-03T15:12:11;2;2;
47810;PMS5003;33575;52.600;7.318;2023-04-03T15:14:43;0;0;
47810;PMS5003;33575;52.600;7.318;2023-04-03T15:17:13;3;3;
47810;PMS5003;33575;52.600;7.318;2023-04-03T15:19:43;1;1;
47810;PMS5003;33575;52.600;7.318;2023-04-03T15:22:14;4;4;
47810;PMS5003;33575;52.600;7.318;2023-04-03T15:24:44;5;3;
47810;PMS5003;33575;52.600;7.318;2023-04-03T15:27:14;3;3;
47810;PMS5003;33575;52.600;7.318;2023-04-03T15:29:45;3;2;
47810;PMS5003;33575;52.600;7.318;2023-04-03T15:32:16;3;3;
47810;PMS5003;33575;52.600;7.318;2023-04-03T15:34:46;4;4;
47810;PMS5003;33575;52.600;7.318;2023-04-03T15:37:17;3;3;
47810;PMS5003;33575;52.600;7.318;2023-04-03T15:39:47;4;4;
47810;PMS5003;33575;52.600;7.318;2023-04-03T15:42:18;2;1;
47810;PMS5003;33575;52.600;7.318;2023-04-03T15:44:48;4;3;
47810;PMS5003;33575;52.600;7.318;2023-04-03T15:47:19;5;3;
47810;PMS5003;33575;52.600;7.318;2023-04-03T15:49:49;2;1;
47810;PMS5003;33575;52.600;7.318;2023-04-03T15:52:20;1;1;
47810;PMS5003;33575;52.600;7.318;2023-04-03T15:54:51;4;3;
47810;PMS5003;33575;52.600;7.318;2023-04-03T15:57:21;3;3;
47810;PMS5003;33575;52.600;7.318;2023-04-03T15:59:52;4;3;
47810;PMS5003;33575;52.600;7.318;2023-04-03T16:02:23;1;1;
47810;PMS5003;33575;52.600;7.318;2023-04-03T16:04:53;3;3;
47810;PMS5003;33575;52.600;7.318;2023-04-03T16:07:23;4;3;
47810;PMS5003;33575;52.600;7.318;2023-04-03T16:09:54;3;3;
47810;PMS5003;33575;52.600;7.318;2023-04-03T16:12:24;4;3;
47810;PMS5003;33575;52.600;7.318;2023-04-03T16:14:55;3;3;
47810;PMS5003;33575;52.600;7.318;2023-04-03T16:17:26;3;3;
47810;PMS5003;33575;52.600;7.318;2023-04-03T16:19:56;3;3;
47810;PMS5003;33575;52.600;7.318;2023-04-03T16:22:27;5;3;
47810;PMS5003;33575;52.600;7.318;2023-04-03T16:24:57;3;3;
47810;PMS5003;33575;52.600;7.318;2023-04-03T16:27:28;4;4;
47810;PMS5003;33575;52.600;7.318;2023-04-03T16:29:58;6;5;
47810;PMS5003;33575;52.600;7.318;2023-04-03T16:32:29;6;6;
47810;PMS5003;33575;52.600;7.318;2023-04-03T16:35:00;6;5;
47810;PMS5003;33575;52.600;7.318;2023-04-03T16:37:33;6;5;
47810;PMS5003;33575;52.600;7.318;2023-04-03T16:40:01;4;4;
47810;PMS5003;33575;52.600;7.318;2023-04-03T16:42:31;6;5;
47810;PMS5003;33575;52.600;7.318;2023-04-03T16:45:02;7;7;
47810;PMS5003;33575;52.600;7.318;2023-04-03T16:47:32;4;4;
47810;PMS5003;33575;52.600;7.318;2023-04-03T16:50:04;7;7;
47810;PMS5003;33575;52.600;7.318;2023-04-03T16:52:33;3;3;
47810;PMS5003;33575;52.600;7.318;2023-04-03T16:55:04;5;5;
47810;PMS5003;33575;52.600;7.318;2023-04-03T16:57:35;5;5;
47810;PMS5003;33575;52.600;7.318;2023-04-03T17:00:06;5;5;
47810;PMS5003;33575;52.600;7.318;2023-04-03T17:02:36;5;5;
47810;PMS5003;33575;52.600;7.318;2023-04-03T17:05:07;4;4;
47810;PMS5003;33575;52.600;7.318;2023-04-03T17:07:37;6;5;
47810;PMS5003;33575;52.600;7.318;2023-04-03T17:10:08;5;5;
47810;PMS5003;33575;52.600;7.318;2023-04-03T17:12:38;5;5;
47810;PMS5003;33575;52.600;7.318;2023-04-03T17:15:09;4;4;
47810;PMS5003;33575;52.600;7.318;2023-04-03T17:17:39;3;3;
47810;PMS5003;33575;52.600;7.318;2023-04-03T17:20:10;6;6;
47810;PMS5003;33575;52.600;7.318;2023-04-03T17:22:40;5;5;
47810;PMS5003;33575;52.600;7.318;2023-04-03T17:25:11;4;4;
47810;PMS5003;33575;52.600;7.318;2023-04-03T17:27:41;5;5;
47810;PMS5003;33575;52.600;7.318;2023-04-03T17:30:12;3;3;
47810;PMS5003;33575;52.600;7.318;2023-04-03T17:32:43;5;4;
47810;PMS5003;33575;52.600;7.318;2023-04-03T17:35:13;5;5;
47810;PMS5003;33575;52.600;7.318;2023-04-03T17:37:44;6;6;
47810;PMS5003;33575;52.600;7.318;2023-04-03T17:40:15;8;7;
47810;PMS5003;33575;52.600;7.318;2023-04-03T17:42:45;12;11;
47810;PMS5003;33575;52.600;7.318;2023-04-03T17:45:16;12;11;
47810;PMS5003;33575;52.600;7.318;2023-04-03T17:47:46;9;9;
47810;PMS5003;33575;52.600;7.318;2023-04-03T17:50:17;8;7;
47810;PMS5003;33575;52.600;7.318;2023-04-03T17:52:47;6;6;
47810;PMS5003;33575;52.600;7.318;2023-04-03T17:55:18;6;6;